Daska Weather



Daska's Current Weather

Temprature 14o smoke

smoke

Rain: 0 %

Min Temprature14o
Max Temprature14o
Humidity82
Wind Speed0.64 m/h
Sun Rise06:16:19
Sun Set17:16:13
Current Time: 28-Oct-2020 06:57:07
Lat/Lon: 32.32, 74.35




Daska's Geo Location



Daska's Weather Forecast

Time Overall Temp Min Temp Max Temp Humidity Wind Speed Rain
28-Oct-2020 (Wed)
08:00:00 clear sky 17.200 17.200 20.560 53 0.64 m/h 0 %
11:00:00 clear sky 26.430 26.430 29.850 28 0.55 m/h 0 %
14:00:00 clear sky 31.000 31.000 32.160 15 1.61 m/h 0 %
17:00:00 clear sky 26.220 26.220 26.320 16 0.6 m/h 0 %
20:00:00 clear sky 22.320 22.320 22.320 20 1.17 m/h 0 %
23:00:00 clear sky 19.640 19.640 19.640 24 2.65 m/h 0 %
29-Oct-2020 (Thu)
02:00:00 clear sky 17.710 17.710 17.710 27 1.61 m/h 0 %
05:00:00 clear sky 16.580 16.580 16.580 30 1.78 m/h 0 %
08:00:00 clear sky 20.660 20.660 20.660 24 2.38 m/h 0 %
11:00:00 clear sky 29.280 29.280 29.280 14 2.2 m/h 0 %
14:00:00 clear sky 32.540 32.540 32.540 11 1.31 m/h 0 %
17:00:00 clear sky 26.630 26.630 26.630 16 0.52 m/h 0 %
20:00:00 clear sky 23.160 23.160 23.160 20 1.67 m/h 0 %
23:00:00 clear sky 19.770 19.770 19.770 24 2.19 m/h 0 %
30-Oct-2020 (Fri)
02:00:00 clear sky 17.650 17.650 17.650 28 0.95 m/h 0 %
05:00:00 clear sky 16.880 16.880 16.880 29 1.59 m/h 0 %
08:00:00 clear sky 21.040 21.040 21.040 23 1.63 m/h 0 %
11:00:00 clear sky 30.320 30.320 30.320 13 0.96 m/h 0 %
14:00:00 clear sky 32.590 32.590 32.590 11 2.56 m/h 0 %
17:00:00 clear sky 27.510 27.510 27.510 15 2.99 m/h 0 %
20:00:00 clear sky 21.850 21.850 21.850 20 3.19 m/h 0 %
23:00:00 clear sky 18.860 18.860 18.860 25 2.75 m/h 0 %
31-Oct-2020 (Sat)
02:00:00 clear sky 16.370 16.370 16.370 29 2.05 m/h 0 %
05:00:00 clear sky 14.540 14.540 14.540 33 1.77 m/h 0 %
08:00:00 clear sky 19.170 19.170 19.170 25 1.37 m/h 0 %
11:00:00 clear sky 28.660 28.660 28.660 14 1.86 m/h 0 %
14:00:00 clear sky 32.250 32.250 32.250 10 3.12 m/h 0 %
17:00:00 clear sky 26.680 26.680 26.680 14 2.52 m/h 0 %
20:00:00 clear sky 21.270 21.270 21.270 20 3.19 m/h 0 %
23:00:00 clear sky 18.570 18.570 18.570 24 1.98 m/h 0 %
01-Nov-2020 (Sun)
02:00:00 clear sky 16.030 16.030 16.030 28 1.56 m/h 0 %
05:00:00 clear sky 14.660 14.660 14.660 31 1.19 m/h 0 %
08:00:00 clear sky 19.310 19.310 19.310 24 0.85 m/h 0 %
11:00:00 clear sky 28.650 28.650 28.650 13 1.87 m/h 0 %
14:00:00 clear sky 32.020 32.020 32.020 10 3.57 m/h 0 %
17:00:00 clear sky 25.510 25.510 25.510 15 1.79 m/h 0 %
20:00:00 clear sky 20.600 20.600 20.600 21 0.29 m/h 0 %
23:00:00 clear sky 17.990 17.990 17.990 25 1.15 m/h 0 %
02-Nov-2020 (Mon)
02:00:00 clear sky 16.910 16.910 16.910 27 1.12 m/h 0 %
05:00:00 clear sky 15.450 15.450 15.450 31 0.89 m/h 0 %

Famous Cities (60)